createdAt,value
2017-10-20T00:01:18.285Z,59.50
2017-10-20T00:03:45.886Z,59.54
2017-10-20T00:06:13.531Z,59.56
2017-10-20T00:08:41.144Z,59.70
2017-10-20T00:11:09.097Z,59.42
2017-10-20T00:13:36.676Z,59.66
2017-10-20T00:16:04.323Z,60.13
2017-10-20T00:18:31.892Z,60.42
2017-10-20T00:20:59.465Z,60.19
2017-10-20T00:23:27.120Z,60.55
2017-10-20T00:25:54.704Z,60.70
2017-10-20T00:28:22.523Z,60.65
2017-10-20T00:30:50.132Z,60.47
2017-10-20T00:33:17.696Z,60.11
2017-10-20T00:35:45.252Z,60.82
2017-10-20T00:38:12.896Z,60.78
2017-10-20T00:40:40.613Z,61.10
2017-10-20T00:43:08.184Z,61.39
2017-10-20T00:45:35.860Z,61.67
2017-10-20T00:48:03.449Z,61.74
2017-10-20T00:50:31.069Z,62.06
2017-10-20T00:52:58.688Z,62.37
2017-10-20T00:55:27.029Z,61.71
2017-10-20T00:57:54.668Z,61.97
2017-10-20T01:00:22.396Z,63.30
2017-10-20T01:02:50.032Z,62.43
2017-10-20T01:05:17.594Z,61.74
2017-10-20T01:07:45.245Z,62.14
2017-10-20T01:10:12.823Z,61.65
2017-10-20T01:12:40.405Z,62.02
2017-10-20T01:15:08.141Z,61.78
2017-10-20T01:17:35.762Z,62.41
2017-10-20T01:20:03.383Z,62.53
2017-10-20T01:22:31.957Z,63.03
2017-10-20T01:24:59.601Z,62.36
2017-10-20T01:27:27.210Z,63.06
2017-10-20T01:29:54.966Z,62.52
2017-10-20T01:32:22.610Z,62.47
2017-10-20T01:34:50.228Z,62.59
2017-10-20T01:37:17.845Z,62.63
2017-10-20T01:39:45.461Z,61.87
2017-10-20T01:42:13.152Z,62.52
2017-10-20T01:44:40.769Z,62.63
2017-10-20T01:47:08.477Z,62.37
2017-10-20T01:49:36.137Z,62.71
2017-10-20T01:52:03.761Z,62.15
2017-10-20T01:54:31.389Z,62.06
2017-10-20T01:56:59.080Z,63.09
2017-10-20T01:59:26.913Z,63.00
2017-10-20T02:01:54.597Z,62.87
2017-10-20T02:04:22.224Z,63.32
2017-10-20T02:06:49.814Z,63.02
2017-10-20T02:09:17.473Z,64.12
2017-10-20T02:11:45.085Z,63.95
2017-10-20T02:14:12.732Z,64.64
2017-10-20T02:16:40.430Z,64.08
2017-10-20T02:19:08.057Z,64.01
2017-10-20T02:21:35.638Z,64.15
2017-10-20T02:24:03.253Z,64.08
2017-10-20T02:26:30.872Z,64.19
2017-10-20T02:28:58.504Z,64.26
2017-10-20T02:31:26.176Z,63.98
2017-10-20T02:33:53.834Z,63.51
2017-10-20T02:36:21.460Z,63.99
2017-10-20T02:38:49.192Z,63.90
2017-10-20T02:41:17.040Z,63.90
2017-10-20T02:43:44.922Z,64.04
2017-10-20T02:46:12.637Z,64.06
2017-10-20T02:48:40.985Z,63.89
2017-10-20T02:51:08.616Z,63.83
2017-10-20T02:53:36.897Z,63.67
2017-10-20T02:56:04.915Z,63.62
2017-10-20T02:58:32.751Z,63.95
2017-10-20T03:01:00.762Z,63.95
2017-10-20T03:03:28.924Z,63.73
2017-10-20T03:05:56.898Z,63.86
2017-10-20T03:08:24.556Z,63.28
2017-10-20T03:10:56.444Z,63.17
2017-10-20T03:13:26.154Z,63.26
2017-10-20T03:16:00.306Z,63.43
2017-10-20T03:18:36.441Z,63.93
2017-10-20T03:21:12.243Z,63.49
2017-10-20T03:23:42.171Z,63.26
2017-10-20T03:26:11.406Z,63.71
2017-10-20T03:28:45.012Z,62.94
2017-10-20T03:31:15.728Z,63.18
2017-10-20T03:33:47.718Z,63.63
2017-10-20T03:36:21.350Z,63.39
2017-10-20T03:38:51.773Z,63.87
2017-10-20T03:41:21.843Z,63.61
2017-10-20T03:43:59.018Z,63.24
2017-10-20T03:46:29.967Z,63.67
2017-10-20T03:49:01.179Z,63.84
2017-10-20T03:51:31.709Z,64.12
2017-10-20T03:54:07.273Z,63.75
2017-10-20T03:56:36.724Z,63.80
2017-10-20T03:59:07.086Z,63.94
2017-10-20T04:01:34.950Z,63.90
2017-10-20T04:04:03.639Z,64.08
2017-10-20T04:06:31.355Z,64.25
2017-10-20T04:08:58.977Z,64.73
2017-10-20T04:11:26.660Z,64.76
2017-10-20T04:13:54.276Z,64.36
2017-10-20T04:16:21.974Z,64.05
2017-10-20T04:18:49.795Z,64.04
2017-10-20T04:21:17.391Z,87.18
2017-10-20T04:23:45.025Z,72.33
2017-10-20T04:26:12.852Z,66.78
2017-10-20T04:28:40.437Z,59.78
2017-10-20T04:31:09.217Z,59.95
2017-10-20T04:33:36.898Z,61.74
2017-10-20T04:36:04.470Z,62.13
2017-10-20T04:38:32.152Z,62.37
2017-10-20T04:40:59.808Z,62.41
2017-10-20T04:43:27.371Z,63.57
2017-10-20T04:45:55.012Z,63.67
2017-10-20T04:48:22.827Z,63.92
2017-10-20T04:50:50.439Z,64.65
2017-10-20T04:53:18.032Z,64.73
2017-10-20T04:55:45.636Z,63.97
2017-10-20T04:58:13.289Z,63.61
2017-10-20T05:00:41.077Z,63.69
2017-10-20T05:03:08.678Z,62.66
2017-10-20T05:05:36.619Z,61.46
2017-10-20T05:08:04.349Z,60.07
2017-10-20T05:10:31.940Z,58.88
2017-10-20T05:12:59.509Z,57.70
2017-10-20T05:15:27.173Z,57.00
2017-10-20T05:17:54.754Z,56.14
2017-10-20T05:20:22.324Z,54.97
2017-10-20T05:22:49.922Z,54.52
2017-10-20T05:25:17.513Z,52.79
2017-10-20T05:27:45.120Z,52.23
2017-10-20T05:30:12.758Z,50.61
2017-10-20T05:32:40.323Z,49.80
2017-10-20T05:35:07.896Z,49.12
2017-10-20T05:37:35.491Z,48.02
2017-10-20T05:40:03.106Z,47.00
2017-10-20T05:42:30.656Z,46.18
2017-10-20T05:44:58.280Z,45.65
2017-10-20T05:47:25.853Z,44.91
2017-10-20T05:49:53.476Z,43.42
2017-10-20T05:52:21.124Z,43.31
2017-10-20T05:54:48.731Z,42.16
2017-10-20T05:57:16.308Z,42.67
2017-10-20T05:59:43.993Z,42.41
2017-10-20T06:02:11.615Z,40.97
2017-10-20T06:04:39.181Z,41.20
2017-10-20T06:07:06.745Z,41.22
2017-10-20T06:09:34.363Z,39.84
2017-10-20T06:12:02.014Z,40.34
2017-10-20T06:14:29.580Z,40.42
2017-10-20T06:16:57.188Z,40.02
2017-10-20T06:19:24.753Z,40.11
2017-10-20T06:21:52.556Z,38.63
2017-10-20T06:24:20.285Z,38.59
2017-10-20T06:26:47.857Z,37.76
2017-10-20T06:29:15.471Z,37.77
2017-10-20T06:31:43.192Z,36.91
2017-10-20T06:34:11.125Z,37.03
2017-10-20T06:36:38.743Z,36.38
2017-10-20T06:39:06.380Z,35.78
2017-10-20T06:41:33.989Z,35.92
2017-10-20T06:44:01.575Z,35.25
2017-10-20T06:46:29.198Z,34.60
2017-10-20T06:48:56.997Z,34.90
2017-10-20T06:51:24.577Z,35.59
2017-10-20T06:53:52.225Z,35.32
2017-10-20T06:56:20.131Z,34.97
2017-10-20T06:58:47.688Z,35.02
2017-10-20T07:01:15.322Z,34.08
2017-10-20T07:03:42.890Z,33.60
2017-10-20T07:06:10.476Z,33.09
2017-10-20T07:08:38.100Z,33.00
2017-10-20T07:11:05.668Z,32.43
2017-10-20T07:13:33.305Z,32.66
2017-10-20T07:16:00.982Z,32.67
2017-10-20T07:18:31.861Z,32.12
2017-10-20T07:20:59.729Z,31.97
2017-10-20T07:23:28.170Z,31.25
2017-10-20T07:25:55.754Z,30.77
2017-10-20T07:28:23.322Z,30.60
2017-10-20T07:30:50.975Z,31.37
2017-10-20T07:33:18.628Z,31.62
2017-10-20T07:35:46.201Z,30.90
2017-10-20T07:38:13.805Z,30.57
2017-10-20T07:40:41.393Z,30.61
2017-10-20T07:43:08.974Z,30.52
2017-10-20T07:45:36.587Z,30.24
2017-10-20T07:48:04.238Z,30.07
2017-10-20T07:50:31.815Z,30.50
2017-10-20T07:53:00.280Z,30.79
2017-10-20T07:55:27.858Z,30.66
2017-10-20T07:57:55.459Z,30.82
2017-10-20T08:00:23.184Z,30.37
2017-10-20T08:02:50.794Z,29.64
2017-10-20T08:05:18.375Z,28.03
2017-10-20T08:07:46.002Z,28.54
2017-10-20T08:10:13.608Z,28.52
2017-10-20T08:12:41.238Z,28.42
2017-10-20T08:15:08.858Z,29.71
2017-10-20T08:17:36.467Z,30.00
2017-10-20T08:20:04.386Z,30.39
2017-10-20T08:22:31.985Z,29.97
2017-10-20T08:24:59.598Z,30.05
2017-10-20T08:27:27.460Z,28.26
2017-10-20T08:29:55.095Z,28.06
2017-10-20T08:32:22.722Z,28.37
2017-10-20T08:34:50.316Z,28.55
2017-10-20T08:37:17.947Z,27.48
2017-10-20T08:39:45.705Z,27.80
2017-10-20T08:42:13.307Z,28.28
2017-10-20T08:44:40.993Z,27.37
2017-10-20T08:47:08.621Z,27.02
2017-10-20T08:49:36.262Z,27.19
2017-10-20T08:52:03.860Z,25.87
2017-10-20T08:54:31.496Z,26.67
2017-10-20T08:56:59.058Z,25.84
2017-10-20T08:59:26.846Z,26.67
2017-10-20T09:01:54.437Z,27.21
2017-10-20T09:04:21.991Z,27.45
2017-10-20T09:06:49.551Z,27.96
2017-10-20T09:09:17.134Z,27.94
2017-10-20T09:11:45.087Z,27.33
2017-10-20T09:14:12.341Z,27.15
2017-10-20T09:16:39.925Z,26.34
2017-10-20T09:19:07.499Z,26.49
2017-10-20T09:21:35.053Z,25.79
2017-10-20T09:24:02.721Z,25.55
2017-10-20T09:26:30.305Z,26.05
2017-10-20T09:28:57.854Z,26.09
2017-10-20T09:31:25.456Z,25.78
2017-10-20T09:33:53.053Z,25.48
2017-10-20T09:36:20.691Z,26.04
2017-10-20T09:38:48.334Z,25.83
2017-10-20T09:41:15.929Z,25.60
2017-10-20T09:43:43.483Z,26.92
2017-10-20T09:46:11.092Z,26.30
2017-10-20T09:48:38.710Z,25.87
2017-10-20T09:51:06.543Z,25.72
2017-10-20T09:53:34.164Z,25.27
2017-10-20T09:56:02.518Z,26.19
2017-10-20T09:58:30.081Z,25.58
2017-10-20T10:00:57.803Z,24.83
2017-10-20T10:03:25.374Z,24.53
2017-10-20T10:05:52.993Z,24.99
2017-10-20T10:08:20.662Z,25.42
2017-10-20T10:10:48.246Z,25.92
2017-10-20T10:13:16.797Z,25.32
2017-10-20T10:15:44.409Z,26.65
2017-10-20T10:18:11.968Z,26.28
2017-10-20T10:20:40.554Z,25.91
2017-10-20T10:23:08.172Z,25.70
2017-10-20T10:25:35.764Z,25.58
2017-10-20T10:28:03.404Z,25.86
2017-10-20T10:30:31.142Z,25.35
2017-10-20T10:32:58.701Z,25.52
2017-10-20T10:35:26.299Z,25.46
2017-10-20T10:37:53.954Z,25.33
2017-10-20T10:40:21.531Z,25.33
2017-10-20T10:42:49.081Z,25.79
2017-10-20T10:45:16.710Z,25.87
2017-10-20T10:47:44.639Z,25.67
2017-10-20T10:50:12.181Z,25.82
2017-10-20T10:52:39.786Z,24.99
2017-10-20T10:55:07.328Z,25.34
2017-10-20T10:57:34.933Z,25.75
2017-10-20T11:00:04.612Z,26.51
2017-10-20T11:02:32.426Z,25.99
2017-10-20T11:05:05.933Z,25.62
2017-10-20T11:07:45.401Z,25.17
2017-10-20T11:10:24.850Z,24.66
2017-10-20T11:13:01.173Z,24.90
2017-10-20T11:15:28.766Z,25.61
2017-10-20T11:17:56.385Z,25.55
2017-10-20T11:20:23.942Z,25.22
2017-10-20T11:22:51.588Z,25.28
2017-10-20T11:25:19.182Z,25.33
2017-10-20T11:27:46.916Z,24.77
2017-10-20T11:30:14.615Z,24.59
2017-10-20T11:32:42.216Z,23.88
2017-10-20T11:35:09.813Z,25.04
2017-10-20T11:37:37.454Z,24.82
2017-10-20T11:40:05.021Z,25.12
2017-10-20T11:42:32.693Z,24.67
2017-10-20T11:45:00.396Z,24.37
2017-10-20T11:47:27.969Z,24.13
2017-10-20T11:49:55.514Z,23.98
2017-10-20T11:52:23.098Z,23.66
2017-10-20T11:54:50.883Z,23.23
2017-10-20T11:57:18.494Z,22.23
2017-10-20T11:59:46.172Z,22.22
2017-10-20T12:02:13.757Z,22.68
2017-10-20T12:04:41.668Z,22.54
2017-10-20T12:07:09.258Z,22.00
2017-10-20T12:09:36.905Z,22.63
2017-10-20T12:12:05.247Z,22.88
2017-10-20T12:14:32.864Z,22.07
2017-10-20T12:17:00.473Z,22.19
2017-10-20T12:19:28.076Z,22.15
2017-10-20T12:21:55.921Z,22.11
2017-10-20T12:24:23.554Z,21.56
2017-10-20T12:26:51.178Z,21.60
2017-10-20T12:29:18.717Z,21.92
2017-10-20T12:31:46.303Z,22.04
2017-10-20T12:34:13.841Z,22.29
2017-10-20T12:36:41.376Z,22.67
2017-10-20T12:39:09.001Z,21.90
2017-10-20T12:41:36.580Z,21.02
2017-10-20T12:44:04.114Z,21.69
2017-10-20T12:46:31.746Z,20.91
2017-10-20T12:48:59.308Z,21.69
2017-10-20T12:51:26.916Z,21.28
2017-10-20T12:53:54.500Z,21.98
2017-10-20T12:56:22.045Z,22.13
2017-10-20T12:58:49.580Z,21.78
2017-10-20T13:01:17.468Z,22.13
2017-10-20T13:03:45.361Z,21.71
2017-10-20T13:06:13.125Z,21.20
2017-10-20T13:08:41.456Z,20.39
2017-10-20T13:11:09.295Z,20.65
2017-10-20T13:13:36.864Z,20.59
2017-10-20T13:16:04.474Z,20.85
2017-10-20T13:18:32.057Z,20.82
2017-10-20T13:20:59.913Z,21.04
2017-10-20T13:23:27.532Z,21.09
2017-10-20T13:25:55.148Z,20.31
2017-10-20T13:28:22.843Z,20.58
2017-10-20T13:30:50.460Z,20.75
2017-10-20T13:33:18.094Z,20.74
2017-10-20T13:35:46.575Z,20.57
2017-10-20T13:38:14.245Z,21.12
2017-10-20T13:40:41.958Z,21.49
2017-10-20T13:43:09.583Z,21.44
2017-10-20T13:45:37.185Z,21.85
2017-10-20T13:48:04.798Z,21.86
2017-10-20T13:50:32.396Z,21.88
2017-10-20T13:53:00.021Z,20.72
2017-10-20T13:55:27.578Z,20.97
2017-10-20T13:57:55.445Z,21.37
2017-10-20T14:00:23.084Z,21.07
2017-10-20T14:02:50.752Z,21.16
2017-10-20T14:05:18.338Z,21.90
2017-10-20T14:07:45.995Z,21.51
2017-10-20T14:10:13.837Z,20.73
2017-10-20T14:12:41.434Z,20.79
2017-10-20T14:15:09.067Z,21.32
2017-10-20T14:17:36.633Z,21.49
2017-10-20T14:20:04.337Z,21.87
2017-10-20T14:22:31.994Z,22.91
2017-10-20T14:24:59.549Z,21.68
2017-10-20T14:27:27.087Z,21.23
2017-10-20T14:29:54.693Z,21.94
2017-10-20T14:32:22.306Z,22.76
2017-10-20T14:34:49.856Z,22.12
2017-10-20T14:37:17.745Z,22.25
2017-10-20T14:39:45.363Z,22.44
2017-10-20T14:42:12.946Z,24.15
2017-10-20T14:44:40.596Z,24.42
2017-10-20T14:47:08.258Z,23.45
2017-10-20T14:49:35.869Z,24.31
2017-10-20T14:52:03.636Z,26.72
2017-10-20T14:54:31.374Z,26.37
2017-10-20T14:56:59.006Z,26.41
2017-10-20T14:59:26.804Z,25.30
2017-10-20T15:01:54.474Z,25.27
2017-10-20T15:04:22.038Z,26.95
2017-10-20T15:06:49.733Z,26.83
2017-10-20T15:09:17.391Z,27.10
2017-10-20T15:11:44.971Z,27.27
2017-10-20T15:14:12.521Z,28.06
2017-10-20T15:16:40.112Z,27.62
2017-10-20T15:19:07.666Z,28.33
2017-10-20T15:21:35.448Z,28.55
2017-10-20T15:24:03.045Z,27.99
2017-10-20T15:26:30.745Z,28.18
2017-10-20T15:28:58.354Z,28.89
2017-10-20T15:31:26.007Z,29.20
2017-10-20T15:33:53.583Z,29.09
2017-10-20T15:36:21.467Z,29.50
2017-10-20T15:38:49.163Z,30.08
2017-10-20T15:41:16.775Z,30.25
2017-10-20T15:43:44.341Z,30.45
2017-10-20T15:46:12.061Z,40.57
2017-10-20T15:48:39.877Z,36.10
2017-10-20T15:51:07.513Z,35.41
2017-10-20T15:53:35.121Z,32.54
2017-10-20T15:56:03.907Z,31.88
2017-10-20T15:58:31.478Z,31.53
2017-10-20T16:00:59.080Z,31.83
2017-10-20T16:03:26.920Z,31.97
2017-10-20T16:05:54.594Z,32.17
2017-10-20T16:08:22.240Z,32.09
2017-10-20T16:10:49.808Z,31.89
2017-10-20T16:13:17.852Z,31.34
2017-10-20T16:15:45.460Z,33.08
2017-10-20T16:18:13.114Z,32.39
2017-10-20T16:20:40.797Z,33.02
2017-10-20T16:23:08.468Z,34.22
2017-10-20T16:25:36.072Z,34.75
2017-10-20T16:28:03.667Z,35.60
2017-10-20T16:30:31.318Z,36.82
2017-10-20T16:32:58.969Z,37.10
2017-10-20T16:35:26.600Z,36.57
2017-10-20T16:37:54.201Z,36.90
2017-10-20T16:40:21.821Z,37.05
2017-10-20T16:42:49.387Z,37.41
2017-10-20T16:45:17.056Z,37.63
2017-10-20T16:47:44.705Z,37.71
2017-10-20T16:50:12.295Z,37.69
2017-10-20T16:52:40.005Z,37.89
2017-10-20T16:55:07.608Z,36.94
2017-10-20T16:57:35.305Z,37.71
2017-10-20T17:00:04.490Z,38.36
2017-10-20T17:02:32.124Z,38.17
2017-10-20T17:04:59.743Z,38.54
2017-10-20T17:07:27.384Z,40.09
2017-10-20T17:09:55.006Z,39.62
2017-10-20T17:12:22.599Z,39.96
2017-10-20T17:14:51.215Z,40.00
2017-10-20T17:17:18.842Z,40.59
2017-10-20T17:19:46.469Z,40.94
2017-10-20T17:22:14.117Z,40.90
2017-10-20T17:24:41.800Z,41.01
2017-10-20T17:27:09.418Z,40.76
2017-10-20T17:29:37.058Z,41.38
2017-10-20T17:32:04.701Z,41.48
2017-10-20T17:34:32.306Z,40.78
2017-10-20T17:36:59.989Z,40.72
2017-10-20T17:39:27.624Z,39.79
2017-10-20T17:41:55.235Z,39.82
2017-10-20T17:44:23.648Z,39.89
2017-10-20T17:46:51.321Z,39.79
2017-10-20T17:49:19.624Z,40.18
2017-10-20T17:51:47.272Z,40.98
2017-10-20T17:54:14.948Z,40.14
2017-10-20T17:56:42.795Z,40.00
2017-10-20T17:59:11.713Z,40.36
2017-10-20T18:01:39.361Z,39.06
2017-10-20T18:04:07.049Z,39.77
2017-10-20T18:06:34.720Z,40.10
2017-10-20T18:09:04.483Z,40.38
2017-10-20T18:11:32.242Z,39.73
2017-10-20T18:14:00.069Z,39.73
2017-10-20T18:16:27.709Z,39.93
2017-10-20T18:18:55.941Z,40.22
2017-10-20T18:21:23.634Z,40.16
2017-10-20T18:23:51.314Z,40.81
2017-10-20T18:26:19.121Z,41.23
2017-10-20T18:28:47.362Z,41.10
2017-10-20T18:31:15.059Z,41.43
2017-10-20T18:33:42.736Z,42.68
2017-10-20T18:36:10.591Z,42.41
2017-10-20T18:38:38.275Z,41.70
2017-10-20T18:41:06.430Z,42.67
2017-10-20T18:43:34.126Z,42.98
2017-10-20T18:46:01.774Z,43.09
2017-10-20T18:48:30.117Z,43.21
2017-10-20T18:50:58.036Z,43.56
2017-10-20T18:53:28.512Z,43.92
2017-10-20T18:55:57.562Z,44.18
2017-10-20T18:58:25.337Z,43.85
2017-10-20T19:00:54.815Z,43.13
2017-10-20T19:03:27.070Z,42.66
2017-10-20T19:05:56.893Z,42.68
2017-10-20T19:08:25.636Z,44.46
2017-10-20T19:10:55.641Z,45.18
2017-10-20T19:13:25.306Z,45.11
2017-10-20T19:15:54.229Z,44.74
2017-10-20T19:18:22.473Z,44.91
2017-10-20T19:20:50.099Z,44.51
2017-10-20T19:23:17.707Z,44.99
2017-10-20T19:25:45.378Z,45.40
2017-10-20T19:28:13.155Z,45.47
2017-10-20T19:30:40.812Z,46.12
2017-10-20T19:33:08.501Z,46.14
2017-10-20T19:35:37.820Z,46.14
2017-10-20T19:38:05.631Z,46.12
2017-10-20T19:40:33.236Z,46.01
2017-10-20T19:43:00.893Z,46.26
2017-10-20T19:45:28.584Z,46.22
2017-10-20T19:47:56.244Z,46.64
2017-10-20T19:50:24.003Z,46.78
2017-10-20T19:52:51.774Z,46.43
2017-10-20T19:55:20.225Z,47.30
2017-10-20T19:57:47.836Z,47.55
2017-10-20T20:00:15.617Z,47.77
2017-10-20T20:02:43.310Z,48.00
2017-10-20T20:05:10.977Z,47.97
2017-10-20T20:07:38.612Z,48.11
2017-10-20T20:10:06.253Z,48.21
2017-10-20T20:12:34.079Z,48.09
2017-10-20T20:15:01.695Z,48.30
2017-10-20T20:17:29.292Z,48.77
2017-10-20T20:19:56.872Z,48.69
2017-10-20T20:22:25.506Z,49.19
2017-10-20T20:24:53.196Z,49.39
2017-10-20T20:27:21.561Z,49.83
2017-10-20T20:29:49.313Z,49.86
2017-10-20T20:32:17.726Z,50.18
2017-10-20T20:34:45.391Z,50.83
2017-10-20T20:37:13.120Z,50.98
2017-10-20T20:39:40.771Z,51.44
2017-10-20T20:42:08.446Z,51.19
2017-10-20T20:44:36.147Z,50.58
2017-10-20T20:47:03.826Z,50.03
2017-10-20T20:49:31.437Z,50.02
2017-10-20T20:51:59.065Z,50.01
2017-10-20T20:54:26.710Z,49.77
2017-10-20T20:56:54.326Z,50.72
2017-10-20T20:59:22.033Z,52.16
2017-10-20T21:01:49.648Z,52.19
2017-10-20T21:04:17.236Z,52.13
2017-10-20T21:06:44.917Z,52.15
2017-10-20T21:09:12.654Z,52.48
2017-10-20T21:11:40.327Z,52.67
2017-10-20T21:14:07.994Z,53.25
2017-10-20T21:16:35.642Z,53.68
2017-10-20T21:19:03.282Z,53.80
2017-10-20T21:21:30.948Z,53.75
2017-10-20T21:23:58.590Z,53.66
2017-10-20T21:26:26.193Z,53.46
2017-10-20T21:28:53.861Z,53.33
2017-10-20T21:31:21.534Z,52.45
2017-10-20T21:33:49.178Z,52.83
2017-10-20T21:36:16.773Z,53.39
2017-10-20T21:38:45.064Z,53.30
2017-10-20T21:41:12.793Z,53.09
2017-10-20T21:43:40.446Z,53.55
2017-10-20T21:46:08.089Z,53.55
2017-10-20T21:48:35.715Z,53.45
2017-10-20T21:51:03.342Z,53.60
2017-10-20T21:53:31.097Z,53.39
2017-10-20T21:55:58.737Z,53.71
2017-10-20T21:58:26.405Z,53.80
2017-10-20T22:00:54.094Z,53.86
2017-10-20T22:03:21.704Z,54.27
2017-10-20T22:05:49.372Z,54.65
2017-10-20T22:08:17.061Z,54.90
2017-10-20T22:10:44.740Z,54.86
2017-10-20T22:13:13.595Z,55.32
2017-10-20T22:15:41.259Z,55.65
2017-10-20T22:18:09.194Z,55.79
2017-10-20T22:20:36.852Z,55.90
2017-10-20T22:23:04.765Z,55.94
2017-10-20T22:25:32.430Z,56.10
2017-10-20T22:28:00.094Z,56.36
2017-10-20T22:30:29.324Z,56.46
2017-10-20T22:32:58.227Z,56.29
2017-10-20T22:35:25.985Z,56.41
2017-10-20T22:37:53.689Z,56.39
2017-10-20T22:40:21.354Z,56.07
2017-10-20T22:42:49.072Z,56.02
2017-10-20T22:45:16.717Z,56.10
2017-10-20T22:47:44.345Z,56.45
2017-10-20T22:50:11.989Z,55.71
2017-10-20T22:52:39.737Z,56.68
2017-10-20T22:55:15.202Z,56.66
2017-10-20T22:57:42.897Z,56.66
2017-10-20T23:00:10.606Z,56.78
2017-10-20T23:02:38.323Z,56.51
2017-10-20T23:05:06.114Z,56.53
2017-10-20T23:07:34.548Z,56.30
2017-10-20T23:10:02.410Z,56.49
2017-10-20T23:12:30.248Z,56.58
2017-10-20T23:14:57.929Z,56.47
2017-10-20T23:17:25.504Z,56.56
2017-10-20T23:19:53.156Z,56.44
2017-10-20T23:22:20.761Z,56.48
2017-10-20T23:24:48.463Z,56.28
2017-10-20T23:27:16.255Z,56.42
2017-10-20T23:29:44.245Z,56.47
2017-10-20T23:32:11.955Z,56.78
2017-10-20T23:34:39.548Z,56.88
2017-10-20T23:37:07.793Z,56.91
2017-10-20T23:39:35.419Z,56.98
2017-10-20T23:42:03.762Z,57.08
2017-10-20T23:44:31.409Z,57.22
2017-10-20T23:46:59.067Z,57.12
2017-10-20T23:49:26.659Z,57.42
2017-10-20T23:51:54.287Z,57.61
2017-10-20T23:54:21.947Z,57.84
2017-10-20T23:56:49.586Z,57.94
2017-10-20T23:59:17.326Z,58.27
